sensor_id;sensor_type;location;lat;lon;timestamp;P1;durP1;ratioP1;P2;durP2;ratioP2
66145;SDS011;52948;60.040;30.320;2023-01-28T00:03:34;2.65;;;0.80;;
66145;SDS011;52948;60.040;30.320;2023-01-28T00:08:37;0.95;;;0.80;;
66145;SDS011;52948;60.040;30.320;2023-01-28T00:13:39;0.45;;;0.45;;
66145;SDS011;52948;60.040;30.320;2023-01-28T00:18:42;0.40;;;0.40;;
66145;SDS011;52948;60.040;30.320;2023-01-28T00:23:51;0.32;;;0.32;;
66145;SDS011;52948;60.040;30.320;2023-01-28T00:28:55;1.23;;;0.47;;
66145;SDS011;52948;60.040;30.320;2023-01-28T00:33:57;1.48;;;0.65;;
66145;SDS011;52948;60.040;30.320;2023-01-28T00:39:00;0.55;;;0.55;;
66145;SDS011;52948;60.040;30.320;2023-01-28T00:44:03;0.68;;;0.40;;
66145;SDS011;52948;60.040;30.320;2023-01-28T00:49:06;0.80;;;0.70;;
66145;SDS011;52948;60.040;30.320;2023-01-28T00:54:10;1.15;;;0.63;;
66145;SDS011;52948;60.040;30.320;2023-01-28T00:59:13;0.70;;;0.70;;
66145;SDS011;52948;60.040;30.320;2023-01-28T01:04:16;0.60;;;0.60;;
66145;SDS011;52948;60.040;30.320;2023-01-28T01:09:28;1.15;;;0.90;;
66145;SDS011;52948;60.040;30.320;2023-01-28T01:14:31;0.75;;;0.75;;
66145;SDS011;52948;60.040;30.320;2023-01-28T01:19:36;1.30;;;1.20;;
66145;SDS011;52948;60.040;30.320;2023-01-28T01:25:03;1.77;;;1.35;;
66145;SDS011;52948;60.040;30.320;2023-01-28T01:30:07;1.33;;;1.23;;
66145;SDS011;52948;60.040;30.320;2023-01-28T01:35:10;1.30;;;1.20;;
66145;SDS011;52948;60.040;30.320;2023-01-28T01:40:14;1.42;;;1.33;;
66145;SDS011;52948;60.040;30.320;2023-01-28T01:45:18;1.80;;;1.70;;
66145;SDS011;52948;60.040;30.320;2023-01-28T01:50:31;2.20;;;1.80;;
66145;SDS011;52948;60.040;30.320;2023-01-28T02:00:46;2.15;;;1.95;;
66145;SDS011;52948;60.040;30.320;2023-01-28T02:05:48;2.15;;;1.85;;
66145;SDS011;52948;60.040;30.320;2023-01-28T02:10:52;3.03;;;2.30;;
66145;SDS011;52948;60.040;30.320;2023-01-28T02:15:57;1.83;;;1.58;;
66145;SDS011;52948;60.040;30.320;2023-01-28T02:26:41;2.53;;;1.77;;
66145;SDS011;52948;60.040;30.320;2023-01-28T02:32:10;2.05;;;1.58;;
66145;SDS011;52948;60.040;30.320;2023-01-28T02:42:36;2.38;;;1.27;;
66145;SDS011;52948;60.040;30.320;2023-01-28T02:47:39;1.17;;;1.08;;
66145;SDS011;52948;60.040;30.320;2023-01-28T02:59:18;1.15;;;1.10;;
66145;SDS011;52948;60.040;30.320;2023-01-28T03:10:19;2.20;;;1.38;;
66145;SDS011;52948;60.040;30.320;2023-01-28T03:15:25;1.40;;;1.30;;
66145;SDS011;52948;60.040;30.320;2023-01-28T03:26:47;1.83;;;1.60;;
66145;SDS011;52948;60.040;30.320;2023-01-28T03:32:12;2.65;;;1.73;;
66145;SDS011;52948;60.040;30.320;2023-01-28T03:37:33;2.42;;;1.33;;
66145;SDS011;52948;60.040;30.320;2023-01-28T03:42:52;1.92;;;1.65;;
66145;SDS011;52948;60.040;30.320;2023-01-28T03:48:15;3.40;;;2.40;;
66145;SDS011;52948;60.040;30.320;2023-01-28T03:53:18;4.13;;;2.92;;
66145;SDS011;52948;60.040;30.320;2023-01-28T03:58:21;7.65;;;2.55;;
66145;SDS011;52948;60.040;30.320;2023-01-28T04:03:27;5.45;;;2.88;;
66145;SDS011;52948;60.040;30.320;2023-01-28T04:08:34;4.50;;;2.50;;
66145;SDS011;52948;60.040;30.320;2023-01-28T04:13:55;11.25;;;3.88;;
66145;SDS011;52948;60.040;30.320;2023-01-28T04:18:59;5.78;;;3.20;;
66145;SDS011;52948;60.040;30.320;2023-01-28T04:24:01;6.00;;;2.85;;
66145;SDS011;52948;60.040;30.320;2023-01-28T04:29:03;3.60;;;2.45;;
66145;SDS011;52948;60.040;30.320;2023-01-28T04:34:08;8.13;;;3.58;;
66145;SDS011;52948;60.040;30.320;2023-01-28T04:39:27;7.88;;;2.63;;
66145;SDS011;52948;60.040;30.320;2023-01-28T04:44:55;3.80;;;2.33;;
66145;SDS011;52948;60.040;30.320;2023-01-28T04:50:26;2.67;;;1.23;;
66145;SDS011;52948;60.040;30.320;2023-01-28T04:55:47;3.20;;;1.45;;
66145;SDS011;52948;60.040;30.320;2023-01-28T05:00:54;1.55;;;1.45;;
66145;SDS011;52948;60.040;30.320;2023-01-28T05:06:00;5.70;;;1.67;;
66145;SDS011;52948;60.040;30.320;2023-01-28T05:11:14;1.88;;;1.30;;
66145;SDS011;52948;60.040;30.320;2023-01-28T05:16:17;3.90;;;1.75;;
66145;SDS011;52948;60.040;30.320;2023-01-28T05:21:20;3.63;;;1.33;;
66145;SDS011;52948;60.040;30.320;2023-01-28T05:26:28;1.95;;;1.50;;
66145;SDS011;52948;60.040;30.320;2023-01-28T05:31:30;1.58;;;1.08;;
66145;SDS011;52948;60.040;30.320;2023-01-28T05:36:33;2.38;;;1.45;;
66145;SDS011;52948;60.040;30.320;2023-01-28T05:41:40;0.90;;;0.90;;
66145;SDS011;52948;60.040;30.320;2023-01-28T05:46:43;0.73;;;0.60;;
66145;SDS011;52948;60.040;30.320;2023-01-28T05:52:09;1.85;;;1.00;;
66145;SDS011;52948;60.040;30.320;2023-01-28T05:57:12;1.77;;;1.17;;
66145;SDS011;52948;60.040;30.320;2023-01-28T06:02:15;1.17;;;1.08;;
66145;SDS011;52948;60.040;30.320;2023-01-28T06:07:18;0.98;;;0.98;;
66145;SDS011;52948;60.040;30.320;2023-01-28T06:12:22;1.25;;;0.98;;
66145;SDS011;52948;60.040;30.320;2023-01-28T06:17:56;1.45;;;1.13;;
66145;SDS011;52948;60.040;30.320;2023-01-28T06:23:04;1.10;;;1.00;;
66145;SDS011;52948;60.040;30.320;2023-01-28T06:28:06;1.10;;;1.00;;
66145;SDS011;52948;60.040;30.320;2023-01-28T06:33:09;3.08;;;0.90;;
66145;SDS011;52948;60.040;30.320;2023-01-28T06:38:11;1.48;;;1.25;;
66145;SDS011;52948;60.040;30.320;2023-01-28T06:43:13;2.05;;;1.55;;
66145;SDS011;52948;60.040;30.320;2023-01-28T06:48:16;1.52;;;1.13;;
66145;SDS011;52948;60.040;30.320;2023-01-28T06:53:19;1.15;;;1.00;;
66145;SDS011;52948;60.040;30.320;2023-01-28T06:58:21;1.92;;;0.95;;
66145;SDS011;52948;60.040;30.320;2023-01-28T07:03:23;1.17;;;1.00;;
66145;SDS011;52948;60.040;30.320;2023-01-28T07:08:26;1.35;;;0.98;;
66145;SDS011;52948;60.040;30.320;2023-01-28T07:13:28;2.20;;;1.10;;
66145;SDS011;52948;60.040;30.320;2023-01-28T07:18:31;1.42;;;1.33;;
66145;SDS011;52948;60.040;30.320;2023-01-28T07:23:33;2.00;;;1.42;;
66145;SDS011;52948;60.040;30.320;2023-01-28T07:28:35;1.50;;;1.30;;
66145;SDS011;52948;60.040;30.320;2023-01-28T07:33:37;1.85;;;1.17;;
66145;SDS011;52948;60.040;30.320;2023-01-28T07:38:40;1.50;;;1.27;;
66145;SDS011;52948;60.040;30.320;2023-01-28T07:43:42;2.83;;;1.38;;
66145;SDS011;52948;60.040;30.320;2023-01-28T07:48:45;3.20;;;2.00;;
66145;SDS011;52948;60.040;30.320;2023-01-28T07:53:47;2.50;;;1.15;;
66145;SDS011;52948;60.040;30.320;2023-01-28T07:58:53;2.88;;;1.98;;
66145;SDS011;52948;60.040;30.320;2023-01-28T08:03:59;3.30;;;1.48;;
66145;SDS011;52948;60.040;30.320;2023-01-28T08:09:05;1.60;;;1.50;;
66145;SDS011;52948;60.040;30.320;2023-01-28T08:14:13;2.13;;;1.50;;
66145;SDS011;52948;60.040;30.320;2023-01-28T08:19:15;3.25;;;2.25;;
66145;SDS011;52948;60.040;30.320;2023-01-28T08:24:23;2.33;;;1.70;;
66145;SDS011;52948;60.040;30.320;2023-01-28T08:29:25;3.97;;;1.98;;
66145;SDS011;52948;60.040;30.320;2023-01-28T08:34:27;5.35;;;2.13;;
66145;SDS011;52948;60.040;30.320;2023-01-28T08:39:29;2.67;;;1.90;;
66145;SDS011;52948;60.040;30.320;2023-01-28T08:44:32;2.22;;;1.55;;
66145;SDS011;52948;60.040;30.320;2023-01-28T08:49:34;2.42;;;1.65;;
66145;SDS011;52948;60.040;30.320;2023-01-28T08:54:36;3.33;;;1.48;;
66145;SDS011;52948;60.040;30.320;2023-01-28T08:59:42;1.80;;;1.33;;
66145;SDS011;52948;60.040;30.320;2023-01-28T09:04:46;2.05;;;1.85;;
66145;SDS011;52948;60.040;30.320;2023-01-28T09:09:49;1.55;;;1.05;;
66145;SDS011;52948;60.040;30.320;2023-01-28T09:14:51;1.50;;;1.10;;
66145;SDS011;52948;60.040;30.320;2023-01-28T09:19:54;1.20;;;0.68;;
66145;SDS011;52948;60.040;30.320;2023-01-28T09:24:56;1.02;;;1.00;;
66145;SDS011;52948;60.040;30.320;2023-01-28T09:29:58;1.95;;;1.13;;
66145;SDS011;52948;60.040;30.320;2023-01-28T09:35:01;4.90;;;1.98;;
66145;SDS011;52948;60.040;30.320;2023-01-28T09:40:03;2.05;;;1.20;;
66145;SDS011;52948;60.040;30.320;2023-01-28T09:50:51;2.85;;;1.35;;
66145;SDS011;52948;60.040;30.320;2023-01-28T09:56:02;1.13;;;1.00;;
66145;SDS011;52948;60.040;30.320;2023-01-28T10:27:46;1.80;;;1.38;;
66145;SDS011;52948;60.040;30.320;2023-01-28T10:38:21;1.40;;;1.30;;
66145;SDS011;52948;60.040;30.320;2023-01-28T10:43:25;1.30;;;1.05;;
66145;SDS011;52948;60.040;30.320;2023-01-28T10:48:34;0.38;;;0.35;;
66145;SDS011;52948;60.040;30.320;2023-01-28T10:53:40;0.70;;;0.70;;
66145;SDS011;52948;60.040;30.320;2023-01-28T10:58:56;0.85;;;0.85;;
66145;SDS011;52948;60.040;30.320;2023-01-28T11:04:05;1.10;;;0.60;;
66145;SDS011;52948;60.040;30.320;2023-01-28T11:09:21;1.58;;;1.00;;
66145;SDS011;52948;60.040;30.320;2023-01-28T11:14:25;1.48;;;1.05;;
66145;SDS011;52948;60.040;30.320;2023-01-28T11:19:30;1.13;;;0.85;;
66145;SDS011;52948;60.040;30.320;2023-01-28T11:24:35;1.33;;;1.23;;
66145;SDS011;52948;60.040;30.320;2023-01-28T11:29:38;1.10;;;1.00;;
66145;SDS011;52948;60.040;30.320;2023-01-28T11:34:46;1.58;;;1.45;;
66145;SDS011;52948;60.040;30.320;2023-01-28T11:45:27;0.75;;;0.75;;
66145;SDS011;52948;60.040;30.320;2023-01-28T12:00:56;2.08;;;0.85;;
66145;SDS011;52948;60.040;30.320;2023-01-28T12:43:10;1.73;;;1.30;;
66145;SDS011;52948;60.040;30.320;2023-01-28T13:04:03;1.43;;;1.10;;
66145;SDS011;52948;60.040;30.320;2023-01-28T13:09:23;3.00;;;1.27;;
66145;SDS011;52948;60.040;30.320;2023-01-28T13:14:28;2.25;;;1.75;;
66145;SDS011;52948;60.040;30.320;2023-01-28T13:19:36;1.80;;;1.00;;
66145;SDS011;52948;60.040;30.320;2023-01-28T13:24:40;1.17;;;1.08;;
66145;SDS011;52948;60.040;30.320;2023-01-28T13:29:42;2.03;;;1.73;;
66145;SDS011;52948;60.040;30.320;2023-01-28T13:34:55;2.45;;;1.60;;
66145;SDS011;52948;60.040;30.320;2023-01-28T13:50:18;1.40;;;1.27;;
66145;SDS011;52948;60.040;30.320;2023-01-28T13:55:34;1.15;;;1.05;;
66145;SDS011;52948;60.040;30.320;2023-01-28T14:16:51;2.67;;;1.25;;
66145;SDS011;52948;60.040;30.320;2023-01-28T14:22:08;1.85;;;1.30;;
66145;SDS011;52948;60.040;30.320;2023-01-28T14:27:20;1.27;;;1.00;;
66145;SDS011;52948;60.040;30.320;2023-01-28T14:32:27;1.55;;;1.25;;
66145;SDS011;52948;60.040;30.320;2023-01-28T14:37:30;1.48;;;0.73;;
66145;SDS011;52948;60.040;30.320;2023-01-28T14:42:38;1.60;;;1.35;;
66145;SDS011;52948;60.040;30.320;2023-01-28T14:53:25;2.92;;;1.05;;
66145;SDS011;52948;60.040;30.320;2023-01-28T14:58:31;1.75;;;1.02;;
66145;SDS011;52948;60.040;30.320;2023-01-28T15:03:43;1.10;;;1.00;;
66145;SDS011;52948;60.040;30.320;2023-01-28T15:08:46;0.80;;;0.80;;
66145;SDS011;52948;60.040;30.320;2023-01-28T15:13:53;1.35;;;1.13;;
66145;SDS011;52948;60.040;30.320;2023-01-28T15:18:58;1.17;;;1.08;;
66145;SDS011;52948;60.040;30.320;2023-01-28T15:24:01;0.70;;;0.68;;
66145;SDS011;52948;60.040;30.320;2023-01-28T15:29:04;1.52;;;1.38;;
66145;SDS011;52948;60.040;30.320;2023-01-28T15:34:13;1.38;;;0.77;;
66145;SDS011;52948;60.040;30.320;2023-01-28T15:39:18;1.70;;;1.40;;
66145;SDS011;52948;60.040;30.320;2023-01-28T15:44:29;1.17;;;1.08;;
66145;SDS011;52948;60.040;30.320;2023-01-28T15:49:34;1.67;;;1.50;;
66145;SDS011;52948;60.040;30.320;2023-01-28T15:54:43;0.93;;;0.47;;
66145;SDS011;52948;60.040;30.320;2023-01-28T15:59:46;2.20;;;1.40;;
66145;SDS011;52948;60.040;30.320;2023-01-28T16:04:58;1.08;;;0.88;;
66145;SDS011;52948;60.040;30.320;2023-01-28T16:10:05;1.67;;;1.30;;
66145;SDS011;52948;60.040;30.320;2023-01-28T16:15:14;1.65;;;1.45;;
66145;SDS011;52948;60.040;30.320;2023-01-28T16:20:21;2.38;;;0.90;;
66145;SDS011;52948;60.040;30.320;2023-01-28T16:30:28;0.52;;;0.52;;
66145;SDS011;52948;60.040;30.320;2023-01-28T16:35:31;2.13;;;1.60;;
66145;SDS011;52948;60.040;30.320;2023-01-28T16:40:33;2.90;;;1.40;;
66145;SDS011;52948;60.040;30.320;2023-01-28T16:45:35;2.22;;;1.50;;
66145;SDS011;52948;60.040;30.320;2023-01-28T16:50:38;1.50;;;1.30;;
66145;SDS011;52948;60.040;30.320;2023-01-28T16:55:41;4.60;;;1.40;;
66145;SDS011;52948;60.040;30.320;2023-01-28T17:00:43;1.23;;;1.13;;
66145;SDS011;52948;60.040;30.320;2023-01-28T17:05:46;1.63;;;1.38;;
66145;SDS011;52948;60.040;30.320;2023-01-28T17:10:54;1.60;;;1.48;;
66145;SDS011;52948;60.040;30.320;2023-01-28T17:15:56;1.27;;;1.13;;
66145;SDS011;52948;60.040;30.320;2023-01-28T17:21:03;2.50;;;1.38;;
66145;SDS011;52948;60.040;30.320;2023-01-28T17:26:07;1.08;;;0.90;;
66145;SDS011;52948;60.040;30.320;2023-01-28T17:31:12;2.15;;;1.15;;
66145;SDS011;52948;60.040;30.320;2023-01-28T17:36:15;2.58;;;1.75;;
66145;SDS011;52948;60.040;30.320;2023-01-28T17:41:17;1.95;;;1.45;;
66145;SDS011;52948;60.040;30.320;2023-01-28T17:46:20;1.45;;;1.30;;
66145;SDS011;52948;60.040;30.320;2023-01-28T17:51:23;3.38;;;1.50;;
66145;SDS011;52948;60.040;30.320;2023-01-28T17:56:26;2.72;;;1.50;;
66145;SDS011;52948;60.040;30.320;2023-01-28T18:01:29;2.28;;;1.90;;
66145;SDS011;52948;60.040;30.320;2023-01-28T18:06:33;2.30;;;1.33;;
66145;SDS011;52948;60.040;30.320;2023-01-28T18:11:35;1.05;;;0.93;;
66145;SDS011;52948;60.040;30.320;2023-01-28T18:16:38;1.70;;;1.58;;
66145;SDS011;52948;60.040;30.320;2023-01-28T18:21:40;1.52;;;1.38;;
66145;SDS011;52948;60.040;30.320;2023-01-28T18:26:42;1.25;;;1.15;;
66145;SDS011;52948;60.040;30.320;2023-01-28T18:31:47;0.50;;;0.50;;
66145;SDS011;52948;60.040;30.320;2023-01-28T18:36:49;0.88;;;0.75;;
66145;SDS011;52948;60.040;30.320;2023-01-28T18:41:52;3.47;;;1.50;;
66145;SDS011;52948;60.040;30.320;2023-01-28T18:46:55;1.38;;;1.13;;
66145;SDS011;52948;60.040;30.320;2023-01-28T18:51:58;0.70;;;0.70;;
66145;SDS011;52948;60.040;30.320;2023-01-28T18:57:00;0.68;;;0.57;;
66145;SDS011;52948;60.040;30.320;2023-01-28T19:02:02;0.70;;;0.70;;
66145;SDS011;52948;60.040;30.320;2023-01-28T19:07:04;0.50;;;0.50;;
66145;SDS011;52948;60.040;30.320;2023-01-28T19:12:06;0.80;;;0.73;;
66145;SDS011;52948;60.040;30.320;2023-01-28T19:17:09;6.82;;;0.55;;
66145;SDS011;52948;60.040;30.320;2023-01-28T19:22:11;0.57;;;0.57;;
66145;SDS011;52948;60.040;30.320;2023-01-28T19:27:13;0.60;;;0.60;;
66145;SDS011;52948;60.040;30.320;2023-01-28T19:32:15;0.73;;;0.73;;
66145;SDS011;52948;60.040;30.320;2023-01-28T19:37:17;2.17;;;1.33;;
66145;SDS011;52948;60.040;30.320;2023-01-28T19:42:20;0.63;;;0.63;;
66145;SDS011;52948;60.040;30.320;2023-01-28T19:47:22;1.95;;;1.00;;
66145;SDS011;52948;60.040;30.320;2023-01-28T19:52:24;0.73;;;0.73;;
66145;SDS011;52948;60.040;30.320;2023-01-28T19:57:26;0.93;;;0.82;;
66145;SDS011;52948;60.040;30.320;2023-01-28T20:02:29;0.60;;;0.60;;
66145;SDS011;52948;60.040;30.320;2023-01-28T20:07:31;0.73;;;0.73;;
66145;SDS011;52948;60.040;30.320;2023-01-28T20:12:33;1.40;;;1.00;;
66145;SDS011;52948;60.040;30.320;2023-01-28T20:17:35;0.80;;;0.80;;
66145;SDS011;52948;60.040;30.320;2023-01-28T20:22:37;0.73;;;0.73;;
66145;SDS011;52948;60.040;30.320;2023-01-28T20:27:40;0.50;;;0.50;;
66145;SDS011;52948;60.040;30.320;2023-01-28T20:32:42;1.35;;;0.60;;
66145;SDS011;52948;60.040;30.320;2023-01-28T20:37:44;1.60;;;0.90;;
66145;SDS011;52948;60.040;30.320;2023-01-28T20:42:46;0.95;;;0.57;;
66145;SDS011;52948;60.040;30.320;2023-01-28T20:47:48;3.08;;;0.60;;
66145;SDS011;52948;60.040;30.320;2023-01-28T20:52:51;1.70;;;0.98;;
66145;SDS011;52948;60.040;30.320;2023-01-28T20:57:53;0.82;;;0.82;;
66145;SDS011;52948;60.040;30.320;2023-01-28T21:02:55;3.92;;;1.23;;
66145;SDS011;52948;60.040;30.320;2023-01-28T21:07:59;1.20;;;0.80;;
66145;SDS011;52948;60.040;30.320;2023-01-28T21:13:01;0.22;;;0.22;;
66145;SDS011;52948;60.040;30.320;2023-01-28T21:18:03;1.55;;;0.68;;
66145;SDS011;52948;60.040;30.320;2023-01-28T21:23:06;0.60;;;0.60;;
66145;SDS011;52948;60.040;30.320;2023-01-28T21:28:09;1.30;;;0.50;;
66145;SDS011;52948;60.040;30.320;2023-01-28T21:33:11;0.82;;;0.82;;
66145;SDS011;52948;60.040;30.320;2023-01-28T21:38:13;0.10;;;0.10;;
66145;SDS011;52948;60.040;30.320;2023-01-28T21:43:16;0.73;;;0.73;;
66145;SDS011;52948;60.040;30.320;2023-01-28T21:48:18;0.80;;;0.63;;
66145;SDS011;52948;60.040;30.320;2023-01-28T21:53:20;0.63;;;0.63;;
66145;SDS011;52948;60.040;30.320;2023-01-28T21:58:23;2.35;;;1.15;;
66145;SDS011;52948;60.040;30.320;2023-01-28T22:03:44;1.08;;;0.80;;
66145;SDS011;52948;60.040;30.320;2023-01-28T22:08:47;1.23;;;1.00;;
66145;SDS011;52948;60.040;30.320;2023-01-28T22:13:49;0.65;;;0.60;;
66145;SDS011;52948;60.040;30.320;2023-01-28T22:18:51;1.02;;;0.88;;
66145;SDS011;52948;60.040;30.320;2023-01-28T22:23:53;0.73;;;0.73;;
66145;SDS011;52948;60.040;30.320;2023-01-28T22:28:55;0.20;;;0.20;;
66145;SDS011;52948;60.040;30.320;2023-01-28T22:33:58;1.58;;;0.60;;
66145;SDS011;52948;60.040;30.320;2023-01-28T22:39:01;0.20;;;0.20;;
66145;SDS011;52948;60.040;30.320;2023-01-28T22:44:04;0.98;;;0.90;;
66145;SDS011;52948;60.040;30.320;2023-01-28T22:49:09;1.23;;;0.60;;
66145;SDS011;52948;60.040;30.320;2023-01-28T22:54:12;0.95;;;0.70;;
66145;SDS011;52948;60.040;30.320;2023-01-28T22:59:15;2.47;;;1.38;;
66145;SDS011;52948;60.040;30.320;2023-01-28T23:04:17;0.50;;;0.50;;
66145;SDS011;52948;60.040;30.320;2023-01-28T23:09:19;0.85;;;0.63;;
66145;SDS011;52948;60.040;30.320;2023-01-28T23:14:21;0.73;;;0.57;;
66145;SDS011;52948;60.040;30.320;2023-01-28T23:19:42;1.08;;;0.70;;
66145;SDS011;52948;60.040;30.320;2023-01-28T23:25:03;1.52;;;1.08;;
66145;SDS011;52948;60.040;30.320;2023-01-28T23:30:06;0.30;;;0.30;;
66145;SDS011;52948;60.040;30.320;2023-01-28T23:35:11;0.95;;;0.93;;
66145;SDS011;52948;60.040;30.320;2023-01-28T23:40:13;1.35;;;0.65;;
66145;SDS011;52948;60.040;30.320;2023-01-28T23:45:16;0.55;;;0.55;;
66145;SDS011;52948;60.040;30.320;2023-01-28T23:50:18;0.70;;;0.70;;
66145;SDS011;52948;60.040;30.320;2023-01-28T23:55:21;1.02;;;0.77;;
